sensor_id;sensor_type;location;lat;lon;timestamp;temperature;humidity
29501;DHT22;16450;50.288;10.966;2023-09-19T00:00:09;16.30;99.90
29501;DHT22;16450;50.288;10.966;2023-09-19T00:03:15;16.30;99.90
29501;DHT22;16450;50.288;10.966;2023-09-19T00:06:17;16.30;99.90
29501;DHT22;16450;50.288;10.966;2023-09-19T00:09:20;16.20;99.90
29501;DHT22;16450;50.288;10.966;2023-09-19T00:12:21;16.20;99.90
29501;DHT22;16450;50.288;10.966;2023-09-19T00:15:24;16.20;99.90
29501;DHT22;16450;50.288;10.966;2023-09-19T00:18:26;16.20;99.90
29501;DHT22;16450;50.288;10.966;2023-09-19T00:21:32;16.10;99.90
29501;DHT22;16450;50.288;10.966;2023-09-19T00:24:34;16.10;99.90
29501;DHT22;16450;50.288;10.966;2023-09-19T00:27:36;16.10;99.90
29501;DHT22;16450;50.288;10.966;2023-09-19T00:30:43;16.10;99.90
29501;DHT22;16450;50.288;10.966;2023-09-19T00:33:45;16.10;99.90
29501;DHT22;16450;50.288;10.966;2023-09-19T00:36:47;16.10;99.90
29501;DHT22;16450;50.288;10.966;2023-09-19T00:39:49;16.10;99.90
29501;DHT22;16450;50.288;10.966;2023-09-19T00:42:51;16.20;99.90
29501;DHT22;16450;50.288;10.966;2023-09-19T00:45:55;16.10;99.90
29501;DHT22;16450;50.288;10.966;2023-09-19T00:48:57;16.20;99.90
29501;DHT22;16450;50.288;10.966;2023-09-19T00:51:59;16.10;99.90
29501;DHT22;16450;50.288;10.966;2023-09-19T00:55:01;16.10;99.90
29501;DHT22;16450;50.288;10.966;2023-09-19T00:58:04;16.10;99.90
29501;DHT22;16450;50.288;10.966;2023-09-19T01:01:08;16.10;99.90
29501;DHT22;16450;50.288;10.966;2023-09-19T01:04:10;16.10;99.90
29501;DHT22;16450;50.288;10.966;2023-09-19T01:07:12;16.10;99.90
29501;DHT22;16450;50.288;10.966;2023-09-19T01:10:18;16.00;99.90
29501;DHT22;16450;50.288;10.966;2023-09-19T01:27:02;15.80;99.90
29501;DHT22;16450;50.288;10.966;2023-09-19T01:30:14;15.70;99.90
29501;DHT22;16450;50.288;10.966;2023-09-19T01:33:18;15.60;99.90
29501;DHT22;16450;50.288;10.966;2023-09-19T01:36:21;15.50;99.90
29501;DHT22;16450;50.288;10.966;2023-09-19T01:39:24;15.50;99.90
29501;DHT22;16450;50.288;10.966;2023-09-19T01:42:41;15.50;99.90
29501;DHT22;16450;50.288;10.966;2023-09-19T01:52:18;15.30;99.90
29501;DHT22;16450;50.288;10.966;2023-09-19T01:55:22;15.30;99.90
29501;DHT22;16450;50.288;10.966;2023-09-19T01:58:33;15.30;99.90
29501;DHT22;16450;50.288;10.966;2023-09-19T02:01:37;15.20;99.90
29501;DHT22;16450;50.288;10.966;2023-09-19T02:04:39;15.20;99.90
29501;DHT22;16450;50.288;10.966;2023-09-19T02:07:41;15.20;99.90
29501;DHT22;16450;50.288;10.966;2023-09-19T02:10:43;15.20;99.90
29501;DHT22;16450;50.288;10.966;2023-09-19T02:13:51;15.20;99.90
29501;DHT22;16450;50.288;10.966;2023-09-19T02:16:56;15.30;99.90
29501;DHT22;16450;50.288;10.966;2023-09-19T02:19:58;15.30;99.90
29501;DHT22;16450;50.288;10.966;2023-09-19T02:23:03;15.30;99.90
29501;DHT22;16450;50.288;10.966;2023-09-19T02:26:04;15.40;99.90
29501;DHT22;16450;50.288;10.966;2023-09-19T02:29:07;15.40;99.90
29501;DHT22;16450;50.288;10.966;2023-09-19T02:32:09;15.40;99.90
29501;DHT22;16450;50.288;10.966;2023-09-19T02:35:13;15.40;99.90
29501;DHT22;16450;50.288;10.966;2023-09-19T02:38:16;15.40;99.90
29501;DHT22;16450;50.288;10.966;2023-09-19T02:41:22;15.40;99.90
29501;DHT22;16450;50.288;10.966;2023-09-19T02:44:24;15.50;99.90
29501;DHT22;16450;50.288;10.966;2023-09-19T02:47:26;15.50;99.90
29501;DHT22;16450;50.288;10.966;2023-09-19T02:50:30;15.40;99.90
29501;DHT22;16450;50.288;10.966;2023-09-19T02:53:32;15.40;99.90
29501;DHT22;16450;50.288;10.966;2023-09-19T02:56:34;15.30;99.90
29501;DHT22;16450;50.288;10.966;2023-09-19T02:59:37;15.30;99.90
29501;DHT22;16450;50.288;10.966;2023-09-19T03:02:39;15.30;99.90
29501;DHT22;16450;50.288;10.966;2023-09-19T03:05:43;15.20;99.90
29501;DHT22;16450;50.288;10.966;2023-09-19T03:08:51;15.20;99.90
29501;DHT22;16450;50.288;10.966;2023-09-19T03:11:53;15.20;99.90
29501;DHT22;16450;50.288;10.966;2023-09-19T03:14:56;15.20;99.90
29501;DHT22;16450;50.288;10.966;2023-09-19T03:17:57;15.30;99.90
29501;DHT22;16450;50.288;10.966;2023-09-19T03:21:01;15.20;99.90
29501;DHT22;16450;50.288;10.966;2023-09-19T03:24:03;15.20;99.90
29501;DHT22;16450;50.288;10.966;2023-09-19T03:27:05;15.20;99.90
29501;DHT22;16450;50.288;10.966;2023-09-19T03:30:08;15.30;99.90
29501;DHT22;16450;50.288;10.966;2023-09-19T03:33:11;15.30;99.90
29501;DHT22;16450;50.288;10.966;2023-09-19T03:36:14;15.40;99.90
29501;DHT22;16450;50.288;10.966;2023-09-19T03:39:15;15.40;99.90
29501;DHT22;16450;50.288;10.966;2023-09-19T03:42:17;15.40;99.90
29501;DHT22;16450;50.288;10.966;2023-09-19T03:45:19;15.40;99.90
29501;DHT22;16450;50.288;10.966;2023-09-19T03:48:21;15.50;99.90
29501;DHT22;16450;50.288;10.966;2023-09-19T03:51:26;15.50;99.90
29501;DHT22;16450;50.288;10.966;2023-09-19T03:54:27;15.50;99.90
29501;DHT22;16450;50.288;10.966;2023-09-19T03:57:29;15.60;99.90
29501;DHT22;16450;50.288;10.966;2023-09-19T04:00:31;15.60;99.90
29501;DHT22;16450;50.288;10.966;2023-09-19T04:03:34;15.60;99.90
29501;DHT22;16450;50.288;10.966;2023-09-19T04:06:49;15.60;99.90
29501;DHT22;16450;50.288;10.966;2023-09-19T04:09:50;15.60;99.90
29501;DHT22;16450;50.288;10.966;2023-09-19T04:12:56;15.70;99.90
29501;DHT22;16450;50.288;10.966;2023-09-19T04:15:58;15.70;99.90
29501;DHT22;16450;50.288;10.966;2023-09-19T04:18:59;15.70;99.90
29501;DHT22;16450;50.288;10.966;2023-09-19T04:22:01;15.70;99.90
29501;DHT22;16450;50.288;10.966;2023-09-19T04:25:03;15.70;99.90
29501;DHT22;16450;50.288;10.966;2023-09-19T04:28:05;15.70;99.90
29501;DHT22;16450;50.288;10.966;2023-09-19T04:31:08;15.70;99.90
29501;DHT22;16450;50.288;10.966;2023-09-19T04:34:10;15.70;99.90
29501;DHT22;16450;50.288;10.966;2023-09-19T04:37:12;15.70;99.90
29501;DHT22;16450;50.288;10.966;2023-09-19T04:40:16;15.70;99.90
29501;DHT22;16450;50.288;10.966;2023-09-19T04:43:19;15.70;99.90
29501;DHT22;16450;50.288;10.966;2023-09-19T04:46:21;15.70;99.90
29501;DHT22;16450;50.288;10.966;2023-09-19T04:49:23;15.70;99.90
29501;DHT22;16450;50.288;10.966;2023-09-19T04:52:25;15.70;99.90
29501;DHT22;16450;50.288;10.966;2023-09-19T04:55:27;15.80;99.90
29501;DHT22;16450;50.288;10.966;2023-09-19T04:58:29;15.70;99.90
29501;DHT22;16450;50.288;10.966;2023-09-19T05:01:31;15.70;99.90
29501;DHT22;16450;50.288;10.966;2023-09-19T05:04:33;15.80;99.90
29501;DHT22;16450;50.288;10.966;2023-09-19T05:07:35;15.70;99.90
29501;DHT22;16450;50.288;10.966;2023-09-19T05:10:37;15.70;99.90
29501;DHT22;16450;50.288;10.966;2023-09-19T05:13:40;15.70;99.90
29501;DHT22;16450;50.288;10.966;2023-09-19T05:16:42;15.70;99.90
29501;DHT22;16450;50.288;10.966;2023-09-19T05:19:44;15.70;99.90
29501;DHT22;16450;50.288;10.966;2023-09-19T05:22:47;15.60;99.90
29501;DHT22;16450;50.288;10.966;2023-09-19T05:25:49;15.70;99.90
29501;DHT22;16450;50.288;10.966;2023-09-19T05:28:53;15.60;99.90
29501;DHT22;16450;50.288;10.966;2023-09-19T05:31:54;15.50;99.90
29501;DHT22;16450;50.288;10.966;2023-09-19T05:34:56;15.50;99.90
29501;DHT22;16450;50.288;10.966;2023-09-19T05:37:59;15.40;99.90
29501;DHT22;16450;50.288;10.966;2023-09-19T05:41:01;15.40;99.90
29501;DHT22;16450;50.288;10.966;2023-09-19T05:44:04;15.40;99.90
29501;DHT22;16450;50.288;10.966;2023-09-19T05:47:06;15.40;99.90
29501;DHT22;16450;50.288;10.966;2023-09-19T05:50:11;15.40;99.90
29501;DHT22;16450;50.288;10.966;2023-09-19T05:53:13;15.30;99.90
29501;DHT22;16450;50.288;10.966;2023-09-19T05:56:16;15.40;99.90
29501;DHT22;16450;50.288;10.966;2023-09-19T05:59:20;15.40;99.90
29501;DHT22;16450;50.288;10.966;2023-09-19T06:02:22;15.40;99.90
29501;DHT22;16450;50.288;10.966;2023-09-19T06:05:25;15.40;99.90
29501;DHT22;16450;50.288;10.966;2023-09-19T06:08:28;15.50;99.90
29501;DHT22;16450;50.288;10.966;2023-09-19T06:11:30;15.50;99.90
29501;DHT22;16450;50.288;10.966;2023-09-19T06:14:34;15.60;99.90
29501;DHT22;16450;50.288;10.966;2023-09-19T06:17:36;15.60;99.90
29501;DHT22;16450;50.288;10.966;2023-09-19T06:20:40;15.70;99.90
29501;DHT22;16450;50.288;10.966;2023-09-19T06:23:46;15.80;99.90
29501;DHT22;16450;50.288;10.966;2023-09-19T06:26:48;15.90;99.90
29501;DHT22;16450;50.288;10.966;2023-09-19T06:29:50;16.00;99.90
29501;DHT22;16450;50.288;10.966;2023-09-19T06:32:58;16.10;99.90
29501;DHT22;16450;50.288;10.966;2023-09-19T06:36:03;16.20;99.90
29501;DHT22;16450;50.288;10.966;2023-09-19T06:39:06;16.30;99.90
29501;DHT22;16450;50.288;10.966;2023-09-19T06:42:08;16.40;99.90
29501;DHT22;16450;50.288;10.966;2023-09-19T06:45:10;16.50;99.90
29501;DHT22;16450;50.288;10.966;2023-09-19T06:48:15;16.60;99.90
29501;DHT22;16450;50.288;10.966;2023-09-19T06:51:17;16.70;99.90
29501;DHT22;16450;50.288;10.966;2023-09-19T06:54:19;16.70;99.90
29501;DHT22;16450;50.288;10.966;2023-09-19T06:57:21;16.70;99.90
29501;DHT22;16450;50.288;10.966;2023-09-19T07:00:23;16.70;99.90
29501;DHT22;16450;50.288;10.966;2023-09-19T07:03:26;16.70;99.90
29501;DHT22;16450;50.288;10.966;2023-09-19T07:06:30;16.70;99.90
29501;DHT22;16450;50.288;10.966;2023-09-19T07:09:32;16.80;99.90
29501;DHT22;16450;50.288;10.966;2023-09-19T07:12:34;16.70;99.90
29501;DHT22;16450;50.288;10.966;2023-09-19T07:15:37;16.80;99.90
29501;DHT22;16450;50.288;10.966;2023-09-19T07:18:41;16.80;99.90
29501;DHT22;16450;50.288;10.966;2023-09-19T07:21:46;16.90;99.90
29501;DHT22;16450;50.288;10.966;2023-09-19T07:24:49;17.00;99.90
29501;DHT22;16450;50.288;10.966;2023-09-19T07:27:51;17.00;99.90
29501;DHT22;16450;50.288;10.966;2023-09-19T07:30:52;17.00;99.90
29501;DHT22;16450;50.288;10.966;2023-09-19T07:33:54;17.10;99.90
29501;DHT22;16450;50.288;10.966;2023-09-19T07:36:56;17.20;99.90
29501;DHT22;16450;50.288;10.966;2023-09-19T07:39:58;17.20;99.90
29501;DHT22;16450;50.288;10.966;2023-09-19T07:43:00;17.30;99.90
29501;DHT22;16450;50.288;10.966;2023-09-19T07:46:06;17.30;99.90
29501;DHT22;16450;50.288;10.966;2023-09-19T07:49:09;17.30;99.90
29501;DHT22;16450;50.288;10.966;2023-09-19T07:52:12;17.30;99.90
29501;DHT22;16450;50.288;10.966;2023-09-19T07:55:15;17.30;99.90
29501;DHT22;16450;50.288;10.966;2023-09-19T07:58:18;17.30;99.90
29501;DHT22;16450;50.288;10.966;2023-09-19T08:01:20;17.30;99.90
29501;DHT22;16450;50.288;10.966;2023-09-19T08:04:25;17.30;99.90
29501;DHT22;16450;50.288;10.966;2023-09-19T08:07:28;17.30;99.90
29501;DHT22;16450;50.288;10.966;2023-09-19T08:10:30;17.40;99.90
29501;DHT22;16450;50.288;10.966;2023-09-19T08:13:38;17.40;99.90
29501;DHT22;16450;50.288;10.966;2023-09-19T08:16:44;17.40;99.90
29501;DHT22;16450;50.288;10.966;2023-09-19T08:19:47;17.50;99.90
29501;DHT22;16450;50.288;10.966;2023-09-19T08:22:50;17.60;99.90
29501;DHT22;16450;50.288;10.966;2023-09-19T08:25:58;17.60;99.90
29501;DHT22;16450;50.288;10.966;2023-09-19T08:29:05;17.60;99.90
29501;DHT22;16450;50.288;10.966;2023-09-19T08:32:09;17.60;99.90
29501;DHT22;16450;50.288;10.966;2023-09-19T08:35:11;17.60;99.90
29501;DHT22;16450;50.288;10.966;2023-09-19T08:38:12;17.60;99.90
29501;DHT22;16450;50.288;10.966;2023-09-19T08:41:17;17.60;99.90
29501;DHT22;16450;50.288;10.966;2023-09-19T08:44:19;17.60;99.90
29501;DHT22;16450;50.288;10.966;2023-09-19T08:47:38;17.70;99.90
29501;DHT22;16450;50.288;10.966;2023-09-19T08:54:06;17.60;99.90
29501;DHT22;16450;50.288;10.966;2023-09-19T08:57:08;17.60;99.90
29501;DHT22;16450;50.288;10.966;2023-09-19T09:00:13;17.60;99.90
29501;DHT22;16450;50.288;10.966;2023-09-19T09:03:16;17.70;99.90
29501;DHT22;16450;50.288;10.966;2023-09-19T09:06:22;17.80;99.90
29501;DHT22;16450;50.288;10.966;2023-09-19T09:09:24;17.90;99.90
29501;DHT22;16450;50.288;10.966;2023-09-19T09:12:26;18.10;99.90
29501;DHT22;16450;50.288;10.966;2023-09-19T09:15:29;18.30;99.90
29501;DHT22;16450;50.288;10.966;2023-09-19T09:18:32;18.50;99.90
29501;DHT22;16450;50.288;10.966;2023-09-19T09:21:34;18.60;99.90
29501;DHT22;16450;50.288;10.966;2023-09-19T09:24:55;18.80;99.90
29501;DHT22;16450;50.288;10.966;2023-09-19T09:28:01;18.80;99.90
29501;DHT22;16450;50.288;10.966;2023-09-19T09:31:03;18.90;99.90
29501;DHT22;16450;50.288;10.966;2023-09-19T09:34:10;18.90;99.90
29501;DHT22;16450;50.288;10.966;2023-09-19T09:37:16;19.00;99.90
29501;DHT22;16450;50.288;10.966;2023-09-19T09:40:29;19.10;99.90
29501;DHT22;16450;50.288;10.966;2023-09-19T09:43:47;19.10;99.80
29501;DHT22;16450;50.288;10.966;2023-09-19T09:46:50;19.10;99.90
29501;DHT22;16450;50.288;10.966;2023-09-19T09:49:55;19.10;99.90
29501;DHT22;16450;50.288;10.966;2023-09-19T09:53:27;19.10;99.70
29501;DHT22;16450;50.288;10.966;2023-09-19T09:56:57;19.20;98.60
29501;DHT22;16450;50.288;10.966;2023-09-19T10:00:03;19.20;98.80
29501;DHT22;16450;50.288;10.966;2023-09-19T10:03:20;19.30;99.80
29501;DHT22;16450;50.288;10.966;2023-09-19T10:06:26;19.40;99.50
29501;DHT22;16450;50.288;10.966;2023-09-19T10:09:29;19.60;99.90
29501;DHT22;16450;50.288;10.966;2023-09-19T10:12:33;19.80;99.90
29501;DHT22;16450;50.288;10.966;2023-09-19T10:15:40;20.00;99.70
29501;DHT22;16450;50.288;10.966;2023-09-19T10:18:49;20.20;99.40
29501;DHT22;16450;50.288;10.966;2023-09-19T10:21:54;20.30;98.80
29501;DHT22;16450;50.288;10.966;2023-09-19T10:24:59;20.40;98.30
29501;DHT22;16450;50.288;10.966;2023-09-19T10:28:06;20.40;97.30
29501;DHT22;16450;50.288;10.966;2023-09-19T10:31:19;20.40;96.70
29501;DHT22;16450;50.288;10.966;2023-09-19T10:34:23;20.30;96.80
29501;DHT22;16450;50.288;10.966;2023-09-19T10:37:27;20.20;95.60
29501;DHT22;16450;50.288;10.966;2023-09-19T10:40:33;20.20;95.60
29501;DHT22;16450;50.288;10.966;2023-09-19T10:43:38;20.20;94.50
29501;DHT22;16450;50.288;10.966;2023-09-19T10:46:41;20.10;94.40
29501;DHT22;16450;50.288;10.966;2023-09-19T10:49:44;20.10;95.00
29501;DHT22;16450;50.288;10.966;2023-09-19T10:52:48;20.20;94.00
29501;DHT22;16450;50.288;10.966;2023-09-19T10:56:01;20.20;94.00
29501;DHT22;16450;50.288;10.966;2023-09-19T10:59:14;20.30;93.50
29501;DHT22;16450;50.288;10.966;2023-09-19T11:02:23;20.30;93.90
29501;DHT22;16450;50.288;10.966;2023-09-19T11:05:26;20.30;93.70
29501;DHT22;16450;50.288;10.966;2023-09-19T11:08:28;20.40;93.80
29501;DHT22;16450;50.288;10.966;2023-09-19T11:11:40;20.40;93.70
29501;DHT22;16450;50.288;10.966;2023-09-19T11:14:42;20.50;92.40
29501;DHT22;16450;50.288;10.966;2023-09-19T11:17:46;20.60;92.90
29501;DHT22;16450;50.288;10.966;2023-09-19T11:20:49;20.60;91.80
29501;DHT22;16450;50.288;10.966;2023-09-19T11:24:28;20.70;91.30
29501;DHT22;16450;50.288;10.966;2023-09-19T11:27:32;20.70;87.70
29501;DHT22;16450;50.288;10.966;2023-09-19T11:30:41;20.70;91.10
29501;DHT22;16450;50.288;10.966;2023-09-19T11:33:45;20.70;89.70
29501;DHT22;16450;50.288;10.966;2023-09-19T11:36:48;20.70;90.70
29501;DHT22;16450;50.288;10.966;2023-09-19T11:40:07;20.70;90.70
29501;DHT22;16450;50.288;10.966;2023-09-19T11:43:31;20.80;89.00
29501;DHT22;16450;50.288;10.966;2023-09-19T11:46:55;20.80;88.30
29501;DHT22;16450;50.288;10.966;2023-09-19T11:50:01;20.90;89.80
29501;DHT22;16450;50.288;10.966;2023-09-19T11:53:03;20.90;90.70
29501;DHT22;16450;50.288;10.966;2023-09-19T11:56:07;20.90;90.90
29501;DHT22;16450;50.288;10.966;2023-09-19T11:59:20;21.00;91.10
29501;DHT22;16450;50.288;10.966;2023-09-19T12:02:39;21.00;88.30
29501;DHT22;16450;50.288;10.966;2023-09-19T12:05:44;21.10;88.20
29501;DHT22;16450;50.288;10.966;2023-09-19T12:08:46;21.10;90.20
29501;DHT22;16450;50.288;10.966;2023-09-19T12:11:49;21.10;90.70
29501;DHT22;16450;50.288;10.966;2023-09-19T12:14:54;21.10;89.70
29501;DHT22;16450;50.288;10.966;2023-09-19T12:17:56;21.10;88.70
29501;DHT22;16450;50.288;10.966;2023-09-19T12:20:59;21.20;87.10
29501;DHT22;16450;50.288;10.966;2023-09-19T12:24:05;21.20;86.70
29501;DHT22;16450;50.288;10.966;2023-09-19T12:27:07;21.20;82.10
29501;DHT22;16450;50.288;10.966;2023-09-19T12:30:10;21.20;82.20
29501;DHT22;16450;50.288;10.966;2023-09-19T12:33:28;21.20;81.40
29501;DHT22;16450;50.288;10.966;2023-09-19T12:36:32;21.20;83.20
29501;DHT22;16450;50.288;10.966;2023-09-19T12:39:36;21.30;85.10
29501;DHT22;16450;50.288;10.966;2023-09-19T12:42:38;21.30;84.90
29501;DHT22;16450;50.288;10.966;2023-09-19T12:45:42;21.40;84.00
29501;DHT22;16450;50.288;10.966;2023-09-19T12:48:46;21.50;82.50
29501;DHT22;16450;50.288;10.966;2023-09-19T12:51:55;21.50;82.30
29501;DHT22;16450;50.288;10.966;2023-09-19T12:54:57;21.60;80.40
29501;DHT22;16450;50.288;10.966;2023-09-19T12:58:11;21.70;80.50
29501;DHT22;16450;50.288;10.966;2023-09-19T13:01:14;21.70;77.80
29501;DHT22;16450;50.288;10.966;2023-09-19T13:04:21;21.80;78.50
29501;DHT22;16450;50.288;10.966;2023-09-19T13:07:44;21.80;75.30
29501;DHT22;16450;50.288;10.966;2023-09-19T13:11:16;21.90;74.10
29501;DHT22;16450;50.288;10.966;2023-09-19T13:14:25;21.90;73.60
29501;DHT22;16450;50.288;10.966;2023-09-19T13:17:43;21.90;75.20
29501;DHT22;16450;50.288;10.966;2023-09-19T13:21:08;21.90;70.30
29501;DHT22;16450;50.288;10.966;2023-09-19T13:24:25;21.90;69.30
29501;DHT22;16450;50.288;10.966;2023-09-19T13:27:29;21.90;73.80
29501;DHT22;16450;50.288;10.966;2023-09-19T13:30:31;21.80;74.50
29501;DHT22;16450;50.288;10.966;2023-09-19T13:33:34;21.90;74.00
29501;DHT22;16450;50.288;10.966;2023-09-19T13:36:35;21.90;73.00
29501;DHT22;16450;50.288;10.966;2023-09-19T13:39:38;21.90;73.30
29501;DHT22;16450;50.288;10.966;2023-09-19T13:42:44;22.00;71.30
29501;DHT22;16450;50.288;10.966;2023-09-19T13:45:46;22.00;71.10
29501;DHT22;16450;50.288;10.966;2023-09-19T13:48:48;22.00;69.40
29501;DHT22;16450;50.288;10.966;2023-09-19T13:51:51;22.00;68.30
29501;DHT22;16450;50.288;10.966;2023-09-19T13:54:54;22.00;68.90
29501;DHT22;16450;50.288;10.966;2023-09-19T13:57:58;22.00;68.00
29501;DHT22;16450;50.288;10.966;2023-09-19T14:01:01;22.00;67.50
29501;DHT22;16450;50.288;10.966;2023-09-19T14:04:04;22.00;67.60
29501;DHT22;16450;50.288;10.966;2023-09-19T14:07:07;22.00;67.10
29501;DHT22;16450;50.288;10.966;2023-09-19T14:10:10;22.00;67.10
29501;DHT22;16450;50.288;10.966;2023-09-19T14:13:13;22.00;64.30
29501;DHT22;16450;50.288;10.966;2023-09-19T14:16:16;21.90;64.00
29501;DHT22;16450;50.288;10.966;2023-09-19T14:19:19;21.80;63.70
29501;DHT22;16450;50.288;10.966;2023-09-19T14:22:21;21.70;64.40
29501;DHT22;16450;50.288;10.966;2023-09-19T14:25:23;21.70;64.10
29501;DHT22;16450;50.288;10.966;2023-09-19T14:28:25;21.60;63.50
29501;DHT22;16450;50.288;10.966;2023-09-19T14:31:27;21.50;64.00
29501;DHT22;16450;50.288;10.966;2023-09-19T14:34:29;21.40;62.50
29501;DHT22;16450;50.288;10.966;2023-09-19T14:37:31;21.30;63.20
29501;DHT22;16450;50.288;10.966;2023-09-19T14:40:33;21.30;63.80
29501;DHT22;16450;50.288;10.966;2023-09-19T14:43:35;21.20;65.10
29501;DHT22;16450;50.288;10.966;2023-09-19T14:46:37;21.20;65.50
29501;DHT22;16450;50.288;10.966;2023-09-19T14:49:39;21.20;65.60
29501;DHT22;16450;50.288;10.966;2023-09-19T14:52:41;21.20;65.90
29501;DHT22;16450;50.288;10.966;2023-09-19T14:55:44;21.10;66.00
29501;DHT22;16450;50.288;10.966;2023-09-19T14:58:46;21.10;65.20
29501;DHT22;16450;50.288;10.966;2023-09-19T15:01:49;21.10;65.20
29501;DHT22;16450;50.288;10.966;2023-09-19T15:04:52;21.10;65.00
29501;DHT22;16450;50.288;10.966;2023-09-19T15:07:54;21.10;65.30
29501;DHT22;16450;50.288;10.966;2023-09-19T15:10:58;21.00;65.40
29501;DHT22;16450;50.288;10.966;2023-09-19T15:14:05;21.00;65.60
29501;DHT22;16450;50.288;10.966;2023-09-19T15:17:07;20.90;65.90
29501;DHT22;16450;50.288;10.966;2023-09-19T15:20:10;20.90;66.00
29501;DHT22;16450;50.288;10.966;2023-09-19T15:23:18;20.80;66.40
29501;DHT22;16450;50.288;10.966;2023-09-19T15:26:20;20.80;66.80
29501;DHT22;16450;50.288;10.966;2023-09-19T15:29:23;20.80;66.70
29501;DHT22;16450;50.288;10.966;2023-09-19T15:32:25;20.70;67.50
29501;DHT22;16450;50.288;10.966;2023-09-19T15:35:28;20.70;67.80
29501;DHT22;16450;50.288;10.966;2023-09-19T15:38:31;20.70;68.10
29501;DHT22;16450;50.288;10.966;2023-09-19T15:41:40;20.70;68.20
29501;DHT22;16450;50.288;10.966;2023-09-19T15:44:42;20.70;67.70
29501;DHT22;16450;50.288;10.966;2023-09-19T15:47:46;20.70;68.10
29501;DHT22;16450;50.288;10.966;2023-09-19T15:50:48;20.60;68.40
29501;DHT22;16450;50.288;10.966;2023-09-19T15:53:51;20.60;68.40
29501;DHT22;16450;50.288;10.966;2023-09-19T15:56:54;20.60;68.00
29501;DHT22;16450;50.288;10.966;2023-09-19T15:59:56;20.60;68.60
29501;DHT22;16450;50.288;10.966;2023-09-19T16:03:00;20.60;69.00
29501;DHT22;16450;50.288;10.966;2023-09-19T16:06:08;20.50;68.80
29501;DHT22;16450;50.288;10.966;2023-09-19T16:09:11;20.50;68.90
29501;DHT22;16450;50.288;10.966;2023-09-19T16:12:13;20.50;69.80
29501;DHT22;16450;50.288;10.966;2023-09-19T16:15:16;20.50;69.90
29501;DHT22;16450;50.288;10.966;2023-09-19T16:18:18;20.50;69.40
29501;DHT22;16450;50.288;10.966;2023-09-19T16:21:20;20.40;69.00
29501;DHT22;16450;50.288;10.966;2023-09-19T16:24:22;20.50;69.20
29501;DHT22;16450;50.288;10.966;2023-09-19T16:27:24;20.40;69.20
29501;DHT22;16450;50.288;10.966;2023-09-19T16:30:26;20.40;69.00
29501;DHT22;16450;50.288;10.966;2023-09-19T16:33:32;20.40;69.40
29501;DHT22;16450;50.288;10.966;2023-09-19T16:36:34;20.30;69.40
29501;DHT22;16450;50.288;10.966;2023-09-19T16:39:36;20.30;69.00
29501;DHT22;16450;50.288;10.966;2023-09-19T16:42:38;20.30;69.50
29501;DHT22;16450;50.288;10.966;2023-09-19T16:45:40;20.20;69.50
29501;DHT22;16450;50.288;10.966;2023-09-19T16:48:45;20.20;69.40
29501;DHT22;16450;50.288;10.966;2023-09-19T16:51:50;20.10;69.30
29501;DHT22;16450;50.288;10.966;2023-09-19T16:54:52;20.10;69.50
29501;DHT22;16450;50.288;10.966;2023-09-19T16:57:58;20.00;69.60
29501;DHT22;16450;50.288;10.966;2023-09-19T17:01:00;20.00;69.50
29501;DHT22;16450;50.288;10.966;2023-09-19T17:04:02;19.90;70.00
29501;DHT22;16450;50.288;10.966;2023-09-19T17:07:05;19.80;69.90
29501;DHT22;16450;50.288;10.966;2023-09-19T17:10:07;19.80;70.10
29501;DHT22;16450;50.288;10.966;2023-09-19T17:13:09;19.80;70.20
29501;DHT22;16450;50.288;10.966;2023-09-19T17:16:14;19.70;70.30
29501;DHT22;16450;50.288;10.966;2023-09-19T17:19:17;19.60;70.40
29501;DHT22;16450;50.288;10.966;2023-09-19T17:22:20;19.60;71.10
29501;DHT22;16450;50.288;10.966;2023-09-19T17:25:22;19.50;70.90
29501;DHT22;16450;50.288;10.966;2023-09-19T17:28:24;19.40;71.10
29501;DHT22;16450;50.288;10.966;2023-09-19T17:31:26;19.40;71.20
29501;DHT22;16450;50.288;10.966;2023-09-19T17:34:29;19.30;71.20
29501;DHT22;16450;50.288;10.966;2023-09-19T17:37:33;19.20;71.20
29501;DHT22;16450;50.288;10.966;2023-09-19T17:40:40;19.20;71.70
29501;DHT22;16450;50.288;10.966;2023-09-19T17:43:44;19.10;71.50
29501;DHT22;16450;50.288;10.966;2023-09-19T17:46:46;19.00;71.80
29501;DHT22;16450;50.288;10.966;2023-09-19T17:49:50;19.00;72.10
29501;DHT22;16450;50.288;10.966;2023-09-19T17:52:52;18.90;72.50
29501;DHT22;16450;50.288;10.966;2023-09-19T17:55:54;18.80;72.40
29501;DHT22;16450;50.288;10.966;2023-09-19T17:58:56;18.70;72.70
29501;DHT22;16450;50.288;10.966;2023-09-19T18:01:59;18.70;73.10
29501;DHT22;16450;50.288;10.966;2023-09-19T18:05:01;18.60;73.20
29501;DHT22;16450;50.288;10.966;2023-09-19T18:08:05;18.60;73.30
29501;DHT22;16450;50.288;10.966;2023-09-19T18:11:12;18.60;73.60
29501;DHT22;16450;50.288;10.966;2023-09-19T18:14:17;18.50;73.80
29501;DHT22;16450;50.288;10.966;2023-09-19T18:17:22;18.50;74.10
29501;DHT22;16450;50.288;10.966;2023-09-19T18:20:24;18.40;74.40
29501;DHT22;16450;50.288;10.966;2023-09-19T18:23:26;18.40;74.60
29501;DHT22;16450;50.288;10.966;2023-09-19T18:26:28;18.30;74.60
29501;DHT22;16450;50.288;10.966;2023-09-19T18:29:30;18.30;75.00
29501;DHT22;16450;50.288;10.966;2023-09-19T18:32:32;18.20;75.10
29501;DHT22;16450;50.288;10.966;2023-09-19T18:35:34;18.20;75.20
29501;DHT22;16450;50.288;10.966;2023-09-19T18:38:40;18.10;75.60
29501;DHT22;16450;50.288;10.966;2023-09-19T18:41:42;18.00;76.00
29501;DHT22;16450;50.288;10.966;2023-09-19T18:44:46;17.90;75.80
29501;DHT22;16450;50.288;10.966;2023-09-19T18:47:48;17.90;76.20
29501;DHT22;16450;50.288;10.966;2023-09-19T18:50:49;17.90;76.60
29501;DHT22;16450;50.288;10.966;2023-09-19T18:53:52;17.80;76.80
29501;DHT22;16450;50.288;10.966;2023-09-19T18:57:12;17.80;77.20
29501;DHT22;16450;50.288;10.966;2023-09-19T19:00:16;17.70;77.70
29501;DHT22;16450;50.288;10.966;2023-09-19T19:03:19;17.70;77.90
29501;DHT22;16450;50.288;10.966;2023-09-19T19:06:21;17.60;78.00
29501;DHT22;16450;50.288;10.966;2023-09-19T19:09:24;17.50;78.10
29501;DHT22;16450;50.288;10.966;2023-09-19T19:12:26;17.40;78.00
29501;DHT22;16450;50.288;10.966;2023-09-19T19:15:28;17.40;78.40
29501;DHT22;16450;50.288;10.966;2023-09-19T19:18:30;17.30;78.80
29501;DHT22;16450;50.288;10.966;2023-09-19T19:21:32;17.20;79.20
29501;DHT22;16450;50.288;10.966;2023-09-19T19:24:35;17.10;79.50
29501;DHT22;16450;50.288;10.966;2023-09-19T19:27:37;17.00;79.90